Time;durP1;ratioP1;P1;durP2;ratioP2;P2;SDS_P1;SDS_P2;PMS_P1;PMS_P2;Temp;Humidity;BMP_temperature;BMP_pressure;BME280_temperature;BME280_humidity;BME280_pressure;Samples;Min_cycle;Max_cycle;Signal;HPM_P1;HPM_P2
2023/10/22 00:00:13;;;;;;;4.10;3.70;;;;;;;8.70;100.00;92132.75;2115428;28;20085;-86
2023/10/22 00:01:14;;;;;;;5.25;3.83;;;;;;;8.86;100.00;92131.88;2115509;28;20012;-81
2023/10/22 00:02:15;;;;;;;6.43;3.63;;;;;;;8.74;100.00;92136.06;2115399;28;20027;-86
2023/10/22 00:03:16;;;;;;;5.47;3.95;;;;;;;8.67;100.00;92136.25;2115258;28;20020;-87
2023/10/22 00:04:17;;;;;;;4.38;3.15;;;;;;;8.58;100.00;92128.91;2116475;27;20065;-83
2023/10/22 00:05:18;;;;;;;4.40;3.40;;;;;;;8.50;100.00;92133.69;2099629;28;20099;-85
2023/10/22 00:06:19;;;;;;;4.13;3.50;;;;;;;8.54;100.00;92122.94;2094565;28;20074;-87
2023/10/22 00:07:20;;;;;;;5.43;2.92;;;;;;;8.61;100.00;92122.72;2103550;28;20023;-83
2023/10/22 00:08:21;;;;;;;4.47;2.97;;;;;;;8.64;100.00;92137.09;2107070;28;20023;-90
2023/10/22 00:09:21;;;;;;;6.32;2.90;;;;;;;8.68;100.00;92132.41;2115600;28;20034;-85
2023/10/22 00:10:23;;;;;;;3.58;2.50;;;;;;;8.57;100.00;92130.81;2115164;28;20076;-85
2023/10/22 00:11:23;;;;;;;4.47;3.22;;;;;;;8.54;100.00;92137.00;2098528;28;20488;-83
2023/10/22 00:12:25;;;;;;;3.33;2.50;;;;;;;8.63;100.00;92139.03;2107047;28;20050;-87
2023/10/22 00:13:25;;;;;;;3.28;2.83;;;;;;;8.63;100.00;92140.94;2108933;27;20024;-85
2023/10/22 00:14:27;;;;;;;2.83;2.63;;;;;;;8.69;100.00;92144.56;2103523;28;20027;-88
2023/10/22 00:15:28;;;;;;;4.38;2.85;;;;;;;8.66;100.00;92145.44;2098277;28;20020;-84
2023/10/22 00:16:29;;;;;;;3.63;2.40;;;;;;;8.72;100.00;92141.03;2110988;28;20028;-84
2023/10/22 00:17:30;;;;;;;3.28;2.33;;;;;;;8.64;100.00;92150.41;2108809;28;20016;-88
2023/10/22 00:18:31;;;;;;;2.45;2.20;;;;;;;8.67;100.00;92147.66;2098358;28;20071;-84
2023/10/22 00:19:32;;;;;;;4.75;2.92;;;;;;;8.67;100.00;92139.66;2089969;28;20741;-84
2023/10/22 00:20:37;;;;;;;2.30;2.10;;;;;;;8.67;100.00;92150.31;2106923;28;20464;-84
2023/10/22 00:21:38;;;;;;;2.17;1.98;;;;;;;8.58;100.00;92158.94;2107230;28;20477;-84
2023/10/22 00:22:39;;;;;;;4.05;1.80;;;;;;;8.75;100.00;92162.25;2094185;28;20025;-82
2023/10/22 00:23:40;;;;;;;7.03;2.55;;;;;;;8.60;100.00;92166.50;2096846;28;20059;-81
2023/10/22 00:24:43;;;;;;;2.22;1.83;;;;;;;8.61;100.00;92168.00;2105032;28;20020;-85
2023/10/22 00:25:44;;;;;;;2.22;1.77;;;;;;;8.61;100.00;92172.59;2106764;28;20042;-82
2023/10/22 00:26:46;;;;;;;2.22;1.40;;;;;;;8.67;100.00;92171.63;2100997;28;20024;-83
2023/10/22 00:27:47;;;;;;;2.15;1.70;;;;;;;8.96;100.00;92170.78;2103601;28;20023;-86
2023/10/22 00:28:48;;;;;;;2.13;1.52;;;;;;;9.22;100.00;92172.22;2115081;28;20515;-82
2023/10/22 00:29:49;;;;;;;1.73;1.50;;;;;;;9.00;100.00;92166.84;2098328;28;20035;-85
2023/10/22 00:30:50;;;;;;;4.50;1.52;;;;;;;8.90;100.00;92172.47;2090378;28;20077;-90
2023/10/22 00:31:51;;;;;;;2.20;1.50;;;;;;;8.85;100.00;92173.00;2120428;27;20482;-82
2023/10/22 00:32:52;;;;;;;2.80;1.35;;;;;;;9.04;100.00;92177.34;2117899;27;20058;-86
2023/10/22 00:33:53;;;;;;;2.47;1.35;;;;;;;9.25;100.00;92181.28;2114580;28;20024;-84
2023/10/22 00:34:54;;;;;;;2.88;1.40;;;;;;;9.10;100.00;92177.59;2100810;28;20020;-84
2023/10/22 00:35:56;;;;;;;1.30;1.20;;;;;;;9.04;100.00;92170.13;2108027;28;20020;-85
2023/10/22 00:36:57;;;;;;;3.17;1.60;;;;;;;9.02;100.00;92171.72;2098512;28;20027;-85
2023/10/22 00:37:59;;;;;;;3.28;1.23;;;;;;;8.97;100.00;92172.25;2098366;28;20032;-85
2023/10/22 00:39:01;;;;;;;2.35;1.35;;;;;;;8.96;100.00;92173.44;2103708;28;20039;-84
2023/10/22 00:40:03;;;;;;;4.35;1.30;;;;;;;8.80;100.00;92169.72;2110063;28;20024;-84
2023/10/22 00:41:11;;;;;;;1.90;1.30;;;;;;;8.81;100.00;92165.88;2097923;28;20017;-82
2023/10/22 00:42:12;;;;;;;1.92;1.20;;;;;;;8.83;100.00;92168.13;2099537;28;20030;-83
2023/10/22 00:43:13;;;;;;;2.05;1.20;;;;;;;8.58;100.00;92171.53;2098467;28;20028;-85
2023/10/22 00:44:14;;;;;;;1.10;1.00;;;;;;;8.64;100.00;92167.16;2106530;28;20089;-84
2023/10/22 00:45:15;;;;;;;3.22;1.30;;;;;;;8.63;100.00;92160.34;2106579;28;20413;-86
2023/10/22 00:46:24;;;;;;;1.20;1.10;;;;;;;8.56;100.00;92160.56;2112327;28;20487;-85
2023/10/22 00:47:25;;;;;;;4.63;1.55;;;;;;;8.55;100.00;92169.69;2099308;28;20044;-89
2023/10/22 00:48:26;;;;;;;3.08;1.10;;;;;;;8.61;100.00;92164.59;2098361;28;20032;-86
2023/10/22 00:49:28;;;;;;;2.95;1.13;;;;;;;8.55;100.00;92167.03;2101549;28;20724;-86
2023/10/22 00:50:29;;;;;;;3.28;1.23;;;;;;;8.54;100.00;92162.88;2098416;28;20342;-83
2023/10/22 00:51:30;;;;;;;2.05;1.10;;;;;;;8.40;100.00;92161.41;2097792;28;20070;-85
2023/10/22 00:52:31;;;;;;;4.43;1.10;;;;;;;8.47;100.00;92168.41;2098089;28;20121;-84
2023/10/22 00:53:32;;;;;;;1.42;1.05;;;;;;;8.40;100.00;92168.63;2106454;28;20085;-85
2023/10/22 00:54:34;;;;;;;3.42;1.05;;;;;;;8.46;100.00;92167.66;2111911;28;20023;-86
2023/10/22 00:55:39;;;;;;;2.40;1.42;;;;;;;8.35;100.00;92169.13;2106157;28;20465;-89
2023/10/22 00:56:41;;;;;;;2.53;0.90;;;;;;;8.27;100.00;92166.66;2105870;27;20051;-88
2023/10/22 00:57:42;;;;;;;1.80;1.08;;;;;;;8.20;100.00;92169.53;2106244;28;20549;-84
2023/10/22 00:58:43;;;;;;;2.15;1.00;;;;;;;8.20;100.00;92166.84;2098196;28;20413;-88
2023/10/22 00:59:44;;;;;;;1.77;1.08;;;;;;;8.25;100.00;92166.34;2105198;28;20559;-84
2023/10/22 01:00:46;;;;;;;2.65;1.10;;;;;;;8.20;100.00;92166.13;2097843;28;20025;-87
2023/10/22 01:02:03;;;;;;;1.75;1.10;;;;;;;8.04;100.00;92169.63;2097584;28;20030;-88
2023/10/22 01:03:04;;;;;;;1.98;0.93;;;;;;;8.05;100.00;92171.09;2107839;28;20123;-87
2023/10/22 01:04:05;;;;;;;3.58;1.00;;;;;;;8.10;100.00;92164.50;2099079;28;20170;-86
2023/10/22 01:05:08;;;;;;;1.25;1.15;;;;;;;8.09;100.00;92174.41;2106475;28;20067;-85
2023/10/22 01:06:09;;;;;;;2.22;1.00;;;;;;;7.98;100.00;92174.69;2101654;28;20039;-84
2023/10/22 01:07:10;;;;;;;3.20;1.05;;;;;;;7.92;100.00;92173.72;2107391;28;20107;-84
2023/10/22 01:08:11;;;;;;;1.85;1.20;;;;;;;7.96;100.00;92166.41;2114352;27;20030;-82
2023/10/22 01:09:12;;;;;;;2.28;0.90;;;;;;;8.12;100.00;92173.56;2107874;28;20024;-86
2023/10/22 01:10:13;;;;;;;1.27;0.88;;;;;;;8.04;100.00;92167.69;2109080;28;20020;-84
2023/10/22 01:11:15;;;;;;;2.05;0.93;;;;;;;7.71;100.00;92171.63;2102955;28;20043;-82
2023/10/22 01:12:16;;;;;;;4.30;0.98;;;;;;;7.76;100.00;92169.19;2105772;28;20027;-81
2023/10/22 01:13:17;;;;;;;1.67;0.80;;;;;;;7.75;100.00;92178.34;2124686;27;20019;-82
2023/10/22 01:14:18;;;;;;;1.85;0.95;;;;;;;7.87;100.00;92176.91;2111412;28;20042;-84
2023/10/22 01:15:19;;;;;;;3.70;0.98;;;;;;;7.80;100.00;92183.16;2106569;28;20024;-85
2023/10/22 01:16:20;;;;;;;2.22;0.93;;;;;;;7.78;100.00;92179.44;2101835;28;20461;-85
2023/10/22 01:17:21;;;;;;;1.35;0.90;;;;;;;7.60;100.00;92179.91;2099211;28;20131;-84
2023/10/22 01:18:22;;;;;;;4.95;1.42;;;;;;;7.64;100.00;92177.91;2121779;27;20023;-84
2023/10/22 01:19:24;;;;;;;1.30;0.90;;;;;;;7.50;100.00;92178.97;2118657;27;20026;-84
2023/10/22 01:20:25;;;;;;;1.08;0.80;;;;;;;7.50;100.00;92180.91;2101666;28;20408;-82
2023/10/22 01:21:29;;;;;;;2.92;0.98;;;;;;;7.56;100.00;92185.31;2100684;28;20036;-87
2023/10/22 01:22:29;;;;;;;1.58;0.90;;;;;;;7.60;100.00;92179.16;2106322;28;20067;-87
2023/10/22 01:23:39;;;;;;;1.58;0.77;;;;;;;7.68;100.00;92180.44;2089347;28;20084;-85
2023/10/22 01:24:40;;;;;;;1.30;0.90;;;;;;;7.75;100.00;92177.59;2105866;28;20107;-86
2023/10/22 01:25:41;;;;;;;4.47;1.00;;;;;;;7.66;100.00;92183.53;2112972;28;20024;-86
2023/10/22 01:26:44;;;;;;;2.25;0.82;;;;;;;7.72;100.00;92183.75;2097923;28;20055;-84
2023/10/22 01:27:45;;;;;;;2.83;0.80;;;;;;;7.73;100.00;92185.28;2102426;28;20024;-86
2023/10/22 01:28:46;;;;;;;2.03;0.70;;;;;;;7.75;100.00;92177.59;2105333;28;20024;-86
2023/10/22 01:29:47;;;;;;;0.93;0.80;;;;;;;7.66;100.00;92183.53;2088609;28;20025;-86
2023/10/22 01:30:48;;;;;;;3.25;0.90;;;;;;;7.78;100.00;92182.09;2103093;28;20065;-83
2023/10/22 01:31:49;;;;;;;4.20;0.93;;;;;;;7.87;100.00;92176.91;2118149;27;20023;-82
2023/10/22 01:33:02;;;;;;;2.78;0.82;;;;;;;7.81;100.00;92183.91;2109111;28;20473;-86
2023/10/22 01:34:03;;;;;;;2.30;0.82;;;;;;;7.85;100.00;92173.91;2099368;28;20127;-84
2023/10/22 01:35:05;;;;;;;1.33;0.90;;;;;;;7.78;100.00;92182.84;2106427;28;20114;-83
2023/10/22 01:36:06;;;;;;;1.88;0.85;;;;;;;7.85;100.00;92184.53;2097404;28;20422;-85
2023/10/22 01:37:07;;;;;;;2.40;1.00;;;;;;;7.81;100.00;92182.00;2090267;28;20033;-84
2023/10/22 01:38:08;;;;;;;2.17;0.80;;;;;;;7.74;100.00;92181.44;2106101;28;20063;-84
2023/10/22 01:39:13;;;;;;;1.95;0.70;;;;;;;7.59;100.00;92181.03;2114387;28;20028;-82
2023/10/22 01:40:15;;;;;;;1.88;0.80;;;;;;;7.51;100.00;92182.41;2106573;28;20028;-85
2023/10/22 01:41:16;;;;;;;2.70;0.93;;;;;;;7.54;100.00;92184.97;2105645;28;20065;-85
2023/10/22 01:42:17;;;;;;;1.98;0.70;;;;;;;7.64;100.00;92185.09;2098186;28;20442;-90
2023/10/22 01:43:18;;;;;;;1.52;0.80;;;;;;;7.55;100.00;92183.81;2114038;28;20508;-81
2023/10/22 01:44:19;;;;;;;2.88;0.90;;;;;;;7.37;100.00;92194.13;2105846;28;20028;-81
2023/10/22 01:45:22;;;;;;;1.90;0.70;;;;;;;7.40;100.00;92187.97;2097795;28;20110;-88
2023/10/22 01:46:23;;;;;;;1.23;0.75;;;;;;;7.49;100.00;92184.72;2101408;27;20744;-83
2023/10/22 01:47:24;;;;;;;1.52;0.90;;;;;;;7.54;100.00;92179.63;2119573;27;20057;-85
2023/10/22 01:48:25;;;;;;;1.70;0.88;;;;;;;7.22;100.00;92187.69;2112446;28;20558;-83
2023/10/22 01:49:26;;;;;;;0.90;0.90;;;;;;;7.35;100.00;92185.09;2093217;28;20071;-85
2023/10/22 01:50:26;;;;;;;1.67;0.80;;;;;;;7.27;100.00;92181.84;2097641;28;20468;-84
2023/10/22 01:51:27;;;;;;;2.50;0.70;;;;;;;7.16;100.00;92192.75;2105788;28;20484;-84
2023/10/22 01:52:28;;;;;;;1.70;0.82;;;;;;;7.19;100.00;92186.59;2105993;28;20016;-87
2023/10/22 01:53:29;;;;;;;2.60;1.02;;;;;;;7.04;100.00;92188.84;2089702;28;20025;-86
2023/10/22 01:54:30;;;;;;;0.77;0.52;;;;;;;7.19;100.00;92196.47;2081414;28;20025;-83
2023/10/22 01:55:31;;;;;;;1.10;0.73;;;;;;;7.16;100.00;92194.66;2090770;28;20036;-89
2023/10/22 01:56:32;;;;;;;2.42;0.93;;;;;;;6.94;100.00;92191.75;2105942;28;20027;-89
2023/10/22 01:57:34;;;;;;;3.28;0.80;;;;;;;6.95;100.00;92201.97;2119617;27;20050;-85
2023/10/22 01:58:35;;;;;;;2.33;0.63;;;;;;;6.90;100.00;92194.50;2106249;28;20110;-85
2023/10/22 01:59:37;;;;;;;1.85;0.70;;;;;;;6.94;100.00;92192.50;2104098;28;20032;-87
2023/10/22 02:00:38;;;;;;;2.72;0.60;;;;;;;7.06;100.00;92197.13;2098013;28;20017;-86
2023/10/22 02:01:39;;;;;;;1.65;0.73;;;;;;;6.95;100.00;92199.31;2097551;28;20039;-82
2023/10/22 02:02:40;;;;;;;4.82;0.70;;;;;;;6.79;100.00;92196.63;2097554;28;20497;-81
2023/10/22 02:03:45;;;;;;;1.38;0.70;;;;;;;6.71;100.00;92195.28;2097185;28;20102;-82
2023/10/22 02:04:46;;;;;;;0.90;0.80;;;;;;;6.89;100.00;92198.31;2092612;28;20110;-87
2023/10/22 02:05:47;;;;;;;2.20;0.80;;;;;;;6.76;100.00;92198.22;2107571;28;20103;-86
2023/10/22 02:06:48;;;;;;;1.60;0.90;;;;;;;6.62;100.00;92201.16;2111520;28;20038;-85
2023/10/22 02:07:49;;;;;;;0.93;0.80;;;;;;;6.56;100.00;92198.25;2100865;28;20020;-88
2023/10/22 02:08:50;;;;;;;0.98;0.70;;;;;;;6.65;100.00;92196.94;2097739;28;20027;-84
2023/10/22 02:09:53;;;;;;;2.47;0.80;;;;;;;6.73;100.00;92191.06;2089534;28;20025;-81
2023/10/22 02:10:54;;;;;;;5.20;1.80;;;;;;;6.71;100.00;92192.63;2092836;28;20020;-87
2023/10/22 02:11:55;;;;;;;1.38;1.00;;;;;;;6.51;100.00;92193.44;2105839;28;20438;-86
2023/10/22 02:13:07;;;;;;;2.00;1.00;;;;;;;6.49;100.00;92195.75;2095008;28;20032;-82
2023/10/22 02:14:08;;;;;;;0.70;0.70;;;;;;;6.52;100.00;92202.16;2106818;28;20020;-84
2023/10/22 02:15:09;;;;;;;1.73;0.80;;;;;;;6.45;100.00;92197.75;2105601;28;20477;-87
2023/10/22 02:16:10;;;;;;;0.93;0.70;;;;;;;6.43;100.00;92199.31;2114148;28;20016;-82
2023/10/22 02:17:11;;;;;;;2.45;1.00;;;;;;;6.32;100.00;92210.13;2114961;28;20023;-81
2023/10/22 02:18:12;;;;;;;0.82;0.60;;;;;;;6.42;100.00;92216.41;2089681;28;20052;-88
2023/10/22 02:19:13;;;;;;;2.45;0.90;;;;;;;6.34;100.00;92212.41;2092002;28;20029;-85
2023/10/22 02:20:14;;;;;;;1.98;0.82;;;;;;;6.35;100.00;92208.59;2114319;28;20027;-85
2023/10/22 02:21:16;;;;;;;1.58;0.75;;;;;;;6.08;100.00;92214.06;2091723;28;20021;-81
2023/10/22 02:23:43;;;;;;;;;;;;;;;5.74;100.00;92226.38;2141742;27;20181;-81
2023/10/22 02:24:44;;;;;;;1.80;0.82;;;;;;;5.75;100.00;92221.81;2122611;27;19988;-80
2023/10/22 02:25:45;;;;;;;2.75;0.80;;;;;;;5.69;100.00;92226.09;2117319;27;20052;-81
2023/10/22 02:26:46;;;;;;;3.67;1.10;;;;;;;5.81;100.00;92217.56;2121450;27;20023;-82
2023/10/22 02:27:47;;;;;;;2.28;1.10;;;;;;;5.68;100.00;92228.00;2116568;28;20012;-80
2023/10/22 02:28:48;;;;;;;1.80;0.63;;;;;;;5.71;100.00;92221.16;2109280;28;20050;-79
2023/10/22 02:29:49;;;;;;;1.10;0.80;;;;;;;5.68;100.00;92232.56;2113114;27;20020;-80
2023/10/22 02:30:50;;;;;;;2.22;0.90;;;;;;;5.70;100.00;92232.91;2121123;28;20057;-81
2023/10/22 02:31:51;;;;;;;3.38;0.75;;;;;;;5.78;100.00;92235.00;2104694;28;20066;-80
2023/10/22 02:32:52;;;;;;;2.10;0.60;;;;;;;5.87;100.00;92229.19;2104149;28;20016;-82
2023/10/22 02:34:06;;;;;;;2.42;1.00;;;;;;;5.82;100.00;92227.00;2121448;27;20019;-80
2023/10/22 02:35:08;;;;;;;2.10;0.75;;;;;;;6.16;100.00;92234.72;2131546;27;20040;-82
2023/10/22 02:36:09;;;;;;;1.85;0.80;;;;;;;5.98;100.00;92239.63;2124636;27;20023;-82
2023/10/22 02:37:10;;;;;;;3.47;1.10;;;;;;;6.03;100.00;92231.19;2130039;27;20065;-82
2023/10/22 02:38:13;;;;;;;1.10;1.00;;;;;;;6.02;100.00;92240.31;2112741;28;20066;-80
2023/10/22 02:39:14;;;;;;;0.75;0.70;;;;;;;5.98;100.00;92235.06;2112486;27;20084;-82
2023/10/22 02:40:15;;;;;;;3.17;0.98;;;;;;;5.91;100.00;92224.56;2104651;28;20503;-81
2023/10/22 02:41:16;;;;;;;0.98;0.80;;;;;;;5.99;100.00;92236.56;2123339;27;20360;-82
2023/10/22 02:42:17;;;;;;;1.08;0.63;;;;;;;5.70;100.00;92235.53;2121380;27;20038;-82
2023/10/22 02:43:18;;;;;;;2.38;0.80;;;;;;;5.79;100.00;92225.94;2116387;27;20561;-80
2023/10/22 02:44:20;;;;;;;1.52;0.65;;;;;;;5.80;100.00;92234.63;2115357;27;20019;-82
2023/10/22 02:45:21;;;;;;;1.88;0.90;;;;;;;5.96;100.00;92234.72;2121136;28;20028;-82
2023/10/22 02:46:24;;;;;;;1.48;0.82;;;;;;;5.93;100.00;92235.56;2104089;28;20024;-81
2023/10/22 02:47:26;;;;;;;2.08;0.90;;;;;;;5.92;100.00;92241.97;2105331;27;20486;-82
2023/10/22 02:48:27;;;;;;;1.33;1.13;;;;;;;5.93;100.00;92237.47;2113077;28;20020;-81
2023/10/22 02:49:30;;;;;;;1.85;1.00;;;;;;;6.17;100.00;92241.53;2116136;28;20064;-81
2023/10/22 02:50:30;;;;;;;1.15;1.05;;;;;;;6.19;100.00;92235.81;2113002;28;20125;-82
2023/10/22 02:51:31;;;;;;;0.90;0.70;;;;;;;6.12;100.00;92239.34;2111308;28;20032;-82
2023/10/22 02:52:32;;;;;;;5.10;0.90;;;;;;;6.25;100.00;92245.53;2112419;28;20026;-81
2023/10/22 02:53:33;;;;;;;2.75;1.00;;;;;;;6.12;100.00;92243.91;2104554;28;20048;-82
2023/10/22 02:54:34;;;;;;;1.40;0.82;;;;;;;6.05;100.00;92240.22;2108794;28;20474;-81
2023/10/22 02:55:35;;;;;;;1.05;0.80;;;;;;;6.13;100.00;92258.66;2112906;28;20034;-82
2023/10/22 02:56:39;;;;;;;3.47;1.13;;;;;;;5.96;100.00;92247.97;2112054;27;20051;-80
2023/10/22 02:57:40;;;;;;;0.90;0.90;;;;;;;6.00;100.00;92250.56;2110767;28;20016;-81
2023/10/22 02:58:42;;;;;;;2.63;0.90;;;;;;;5.95;100.00;92248.38;2104427;28;20452;-82
2023/10/22 02:59:43;;;;;;;2.53;1.05;;;;;;;5.92;100.00;92247.28;2115296;27;20107;-82
2023/10/22 03:00:44;;;;;;;1.45;0.60;;;;;;;6.08;100.00;92251.94;2112525;28;20039;-81
2023/10/22 03:01:45;;;;;;;1.17;0.85;;;;;;;6.08;100.00;92253.84;2112681;28;20069;-80
2023/10/22 03:02:46;;;;;;;4.18;0.70;;;;;;;6.25;100.00;92245.53;2104057;28;20051;-81
2023/10/22 03:03:47;;;;;;;1.48;0.73;;;;;;;6.17;100.00;92246.84;2104617;28;20035;-82
2023/10/22 03:04:48;;;;;;;2.92;0.70;;;;;;;6.17;100.00;92252.13;2112748;28;20027;-81
2023/10/22 03:05:49;;;;;;;0.70;0.50;;;;;;;6.33;100.00;92253.38;2113595;27;20142;-81
2023/10/22 03:06:53;;;;;;;3.78;0.52;;;;;;;6.34;100.00;92255.59;2121431;27;20027;-82
2023/10/22 03:07:53;;;;;;;3.22;0.50;;;;;;;6.42;100.00;92250.91;2113082;28;20066;-82
2023/10/22 03:08:54;;;;;;;1.10;0.43;;;;;;;6.51;100.00;92257.16;2112853;27;20044;-83
2023/10/22 03:09:56;;;;;;;4.30;0.52;;;;;;;6.63;100.00;92255.00;2112470;28;20024;-82
2023/10/22 03:10:57;;;;;;;2.60;0.68;;;;;;;6.68;100.00;92260.59;2122875;27;20031;-81
2023/10/22 03:11:58;;;;;;;5.00;0.40;;;;;;;6.81;100.00;92252.75;2129183;27;20027;-81
2023/10/22 03:12:59;;;;;;;6.13;0.68;;;;;;;7.10;100.00;92257.44;2115505;28;20027;-81
2023/10/22 03:14:00;;;;;;;6.07;0.70;;;;;;;7.22;100.00;92256.78;2104679;28;20434;-83
2023/10/22 03:15:02;;;;;;;0.82;0.50;;;;;;;7.24;100.00;92254.44;2121069;28;20095;-83
2023/10/22 03:16:08;;;;;;;2.13;0.77;;;;;;;7.28;100.00;92255.84;2129380;27;20019;-81
2023/10/22 03:17:09;;;;;;;0.73;0.50;;;;;;;7.34;100.00;92261.44;2130401;27;20092;-81
2023/10/22 03:18:10;;;;;;;0.70;0.50;;;;;;;7.52;100.00;92261.75;2112799;28;20028;-81
2023/10/22 03:19:11;;;;;;;3.03;0.60;;;;;;;7.43;100.00;92263.50;2120715;27;20031;-81
2023/10/22 03:20:12;;;;;;;5.68;0.75;;;;;;;7.54;100.00;92264.72;2121085;28;20464;-81
2023/10/22 03:21:17;;;;;;;2.30;0.40;;;;;;;7.74;100.00;92263.91;2103551;28;20021;-81
2023/10/22 03:22:19;;;;;;;2.65;0.68;;;;;;;7.69;100.00;92267.06;2109842;27;20376;-81
2023/10/22 03:23:19;;;;;;;3.88;0.50;;;;;;;7.76;100.00;92256.97;2109649;28;20048;-82
2023/10/22 03:24:22;;;;;;;4.88;0.57;;;;;;;7.74;100.00;92261.25;2103847;28;20358;-80
2023/10/22 03:25:23;;;;;;;2.53;0.60;;;;;;;7.78;100.00;92259.97;2120911;28;20047;-84
2023/10/22 03:26:24;;;;;;;4.32;0.95;;;;;;;7.74;100.00;92261.25;2117680;28;20510;-81
2023/10/22 03:27:27;;;;;;;3.47;0.80;;;;;;;7.78;100.00;92251.25;2103670;28;20059;-82
2023/10/22 03:28:29;;;;;;;3.88;0.82;;;;;;;7.81;100.00;92253.84;2112817;28;20028;-80
2023/10/22 03:29:31;;;;;;;3.03;0.70;;;;;;;7.86;100.00;92257.91;2112292;27;20556;-79
2023/10/22 03:30:37;;;;;;;3.40;0.60;;;;;;;7.80;100.00;92262.22;2112594;28;20036;-81
2023/10/22 03:31:38;;;;;;;1.80;0.40;;;;;;;8.00;100.00;92252.19;2112649;27;20684;-82
2023/10/22 03:32:39;;;;;;;1.90;0.60;;;;;;;7.99;100.00;92255.25;2119096;27;20054;-81
2023/10/22 03:33:40;;;;;;;3.00;0.60;;;;;;;8.02;100.00;92251.78;2111312;28;20110;-80
2023/10/22 03:34:41;;;;;;;3.88;0.68;;;;;;;8.16;100.00;92253.31;2101693;28;20040;-82
2023/10/22 03:35:42;;;;;;;1.48;0.73;;;;;;;8.19;100.00;92250.56;2097811;28;20828;-81
2023/10/22 03:36:44;;;;;;;1.85;0.57;;;;;;;8.29;100.00;92248.78;2105729;28;20153;-81
2023/10/22 03:37:45;;;;;;;1.02;0.50;;;;;;;8.32;100.00;92256.66;2102021;28;20031;-81
2023/10/22 03:38:46;;;;;;;3.65;0.70;;;;;;;8.44;100.00;92251.84;2098260;28;20083;-80
2023/10/22 03:39:47;;;;;;;2.55;0.75;;;;;;;8.64;100.00;92264.97;2095465;28;20381;-82
2023/10/22 03:40:49;;;;;;;1.05;0.45;;;;;;;8.47;100.00;92259.72;2097478;28;20125;-84
2023/10/22 03:41:51;;;;;;;4.45;0.68;;;;;;;8.45;100.00;92259.41;2091228;28;20013;-82
2023/10/22 03:42:52;;;;;;;1.55;0.60;;;;;;;8.35;100.00;92263.06;2103905;28;20017;-83
2023/10/22 03:43:53;;;;;;;3.13;0.80;;;;;;;8.26;100.00;92254.97;2090012;28;20515;-80
2023/10/22 03:44:54;;;;;;;1.35;0.52;;;;;;;8.33;100.00;92257.41;2104891;28;20016;-80
2023/10/22 03:45:56;;;;;;;2.55;0.50;;;;;;;8.20;100.00;92260.03;2114443;28;20034;-82
2023/10/22 03:46:57;;;;;;;1.67;0.50;;;;;;;8.11;100.00;92267.13;2098510;28;20521;-81
2023/10/22 03:47:58;;;;;;;3.47;0.70;;;;;;;8.00;100.00;92256.78;2098713;28;20044;-83
2023/10/22 03:48:59;;;;;;;2.47;0.50;;;;;;;7.92;100.00;92271.44;2101504;28;20036;-81
2023/10/22 03:50:00;;;;;;;2.80;0.63;;;;;;;7.81;100.00;92272.47;2098023;28;21031;-80
2023/10/22 03:51:03;;;;;;;2.63;0.50;;;;;;;7.80;100.00;92272.84;2095620;28;20028;-82
2023/10/22 03:52:05;;;;;;;3.47;0.60;;;;;;;7.80;100.00;92268.28;2096714;28;20054;-80
2023/10/22 03:53:06;;;;;;;2.33;0.40;;;;;;;7.91;100.00;92275.25;2098083;28;20025;-82
2023/10/22 03:54:07;;;;;;;0.82;0.50;;;;;;;8.01;100.00;92271.56;2106112;28;20052;-79
2023/10/22 03:55:08;;;;;;;2.58;0.40;;;;;;;8.10;100.00;92268.31;2093422;28;20149;-81
2023/10/22 03:56:09;;;;;;;1.95;0.43;;;;;;;8.05;100.00;92275.63;2104120;28;20028;-82
2023/10/22 03:57:10;;;;;;;2.83;0.70;;;;;;;8.30;100.00;92272.31;2114167;28;20084;-79
2023/10/22 03:58:11;;;;;;;2.95;0.63;;;;;;;8.38;100.00;92280.13;2104313;28;20031;-79
2023/10/22 03:59:12;;;;;;;3.78;0.68;;;;;;;8.73;100.00;92275.75;2109228;28;20078;-83
2023/10/22 04:00:14;;;;;;;3.58;0.50;;;;;;;8.53;100.00;92278.59;2101036;28;20032;-83
2023/10/22 04:01:15;;;;;;;3.25;0.70;;;;;;;8.60;100.00;92278.38;2106011;27;20110;-82
2023/10/22 04:02:16;;;;;;;5.43;0.70;;;;;;;8.46;100.00;92282.19;2111435;28;20038;-82
2023/10/22 04:03:17;;;;;;;1.23;0.70;;;;;;;8.55;100.00;92284.22;2102447;28;20028;-82
2023/10/22 04:04:18;;;;;;;3.17;0.60;;;;;;;8.45;100.00;92295.94;2110483;27;20027;-81
2023/10/22 04:05:19;;;;;;;2.42;0.55;;;;;;;8.26;100.00;92290.31;2121075;27;20046;-82
2023/10/22 04:06:20;;;;;;;3.58;0.63;;;;;;;8.21;100.00;92287.41;2117457;27;20051;-81
2023/10/22 04:07:21;;;;;;;3.17;0.75;;;;;;;8.29;100.00;92296.69;2103869;28;20226;-81
2023/10/22 04:08:23;;;;;;;2.85;0.57;;;;;;;8.35;100.00;92288.97;2098258;28;20051;-83
2023/10/22 04:09:24;;;;;;;2.08;0.50;;;;;;;8.20;100.00;92289.31;2109768;27;20028;-81
2023/10/22 04:10:25;;;;;;;4.95;0.77;;;;;;;8.13;100.00;92292.19;2114932;28;20023;-82
2023/10/22 04:11:26;;;;;;;1.98;0.50;;;;;;;8.05;100.00;92291.59;2108257;28;20032;-81
2023/10/22 04:12:27;;;;;;;2.65;0.60;;;;;;;8.12;100.00;92289.91;2106265;28;20023;-83
2023/10/22 04:13:28;;;;;;;1.95;0.60;;;;;;;8.11;100.00;92291.84;2098070;28;20032;-81
2023/10/22 04:14:28;;;;;;;3.25;0.70;;;;;;;8.09;100.00;92296.84;2106105;28;20015;-82
2023/10/22 04:15:37;;;;;;;1.73;0.50;;;;;;;8.07;100.00;92291.91;2099671;28;20031;-82
2023/10/22 04:16:38;;;;;;;2.45;0.50;;;;;;;8.00;100.00;92294.03;2111664;27;20460;-80
2023/10/22 04:17:39;;;;;;;7.28;0.70;;;;;;;8.15;100.00;92292.50;2110859;28;20060;-82
2023/10/22 04:18:40;;;;;;;1.10;0.60;;;;;;;8.12;100.00;92296.00;2098144;28;20017;-82
2023/10/22 04:19:41;;;;;;;3.58;0.70;;;;;;;8.12;100.00;92289.91;2093087;28;20024;-82
2023/10/22 04:20:42;;;;;;;2.40;0.70;;;;;;;8.24;100.00;92284.66;2098068;28;20060;-82
2023/10/22 04:21:43;;;;;;;2.22;0.40;;;;;;;8.33;100.00;92294.69;2110877;28;20019;-82
2023/10/22 04:22:44;;;;;;;1.10;0.50;;;;;;;8.23;100.00;92285.81;2109255;27;20026;-81
2023/10/22 04:23:46;;;;;;;0.82;0.40;;;;;;;8.19;100.00;92295.06;2114783;28;20040;-82
2023/10/22 04:24:47;;;;;;;2.97;1.05;;;;;;;8.11;100.00;92302.47;2114730;28;20107;-81
2023/10/22 04:25:48;;;;;;;3.50;0.95;;;;;;;8.08;100.00;92295.34;2106148;28;20063;-83
2023/10/22 04:26:49;;;;;;;3.00;0.60;;;;;;;8.07;100.00;92294.59;2098079;28;20500;-80
2023/10/22 04:27:50;;;;;;;3.85;0.70;;;;;;;8.04;100.00;92300.75;2097874;28;20020;-82
2023/10/22 04:28:51;;;;;;;4.20;0.75;;;;;;;8.16;100.00;92301.22;2106439;28;20024;-83
2023/10/22 04:29:52;;;;;;;4.38;0.63;;;;;;;8.08;100.00;92301.41;2105925;28;20023;-81
2023/10/22 04:30:55;;;;;;;1.55;0.40;;;;;;;8.07;100.00;92296.50;2089697;28;20025;-81
2023/10/22 04:31:57;;;;;;;2.97;0.70;;;;;;;8.08;100.00;92301.41;2101946;28;20827;-82
2023/10/22 04:32:58;;;;;;;2.17;0.70;;;;;;;8.01;100.00;92293.59;2097957;28;20032;-82
2023/10/22 04:33:59;;;;;;;1.95;0.70;;;;;;;8.08;100.00;92298.75;2089839;28;20032;-84
2023/10/22 04:35:01;;;;;;;3.08;0.60;;;;;;;8.04;100.00;92300.75;2105343;28;20505;-81
2023/10/22 04:36:03;;;;;;;3.90;0.95;;;;;;;7.95;100.00;92305.94;2106077;28;20506;-82
2023/10/22 04:37:04;;;;;;;3.33;0.60;;;;;;;7.94;100.00;92307.09;2090119;28;20055;-83
2023/10/22 04:38:05;;;;;;;3.53;0.60;;;;;;;8.10;100.00;92308.97;2103252;28;20105;-83
2023/10/22 04:39:06;;;;;;;2.90;0.60;;;;;;;8.31;100.00;92311.09;2104482;28;20023;-81
2023/10/22 04:40:07;;;;;;;1.10;0.50;;;;;;;8.19;100.00;92313.69;2089994;28;20048;-83
2023/10/22 04:41:12;;;;;;;1.10;0.57;;;;;;;7.99;100.00;92305.81;2100431;28;20492;-83
2023/10/22 04:42:13;;;;;;;4.65;0.75;;;;;;;8.11;100.00;92309.72;2107051;28;20023;-83
2023/10/22 04:43:14;;;;;;;1.63;0.52;;;;;;;8.21;100.00;92298.81;2121512;27;20027;-82
2023/10/22 04:44:15;;;;;;;3.17;0.70;;;;;;;8.29;100.00;92299.34;2121810;27;20057;-83
2023/10/22 04:45:16;;;;;;;4.93;1.02;;;;;;;8.16;100.00;92295.91;2097693;28;20016;-82
2023/10/22 04:46:16;;;;;;;3.35;0.65;;;;;;;8.21;100.00;92301.47;2109898;28;20047;-83
2023/10/22 04:47:17;;;;;;;3.40;0.63;;;;;;;8.25;100.00;92304.78;2114090;28;20110;-82
2023/10/22 04:48:18;;;;;;;1.08;0.60;;;;;;;8.18;100.00;92299.66;2106774;28;20024;-83
2023/10/22 04:49:19;;;;;;;2.70;0.63;;;;;;;8.08;100.00;92298.75;2106185;28;20445;-82
2023/10/22 04:50:20;;;;;;;0.90;0.60;;;;;;;8.34;100.00;92304.19;2097768;28;20496;-82
2023/10/22 04:51:39;;;;;;;2.10;0.60;;;;;;;8.27;100.00;92307.78;2097824;28;20020;-81